sensor_id;sensor_type;location;lat;lon;timestamp;P1;durP1;ratioP1;P2;durP2;ratioP2
46745;SDS011;32493;50.514;9.678;2024-02-04T00:01:59;2.30;;;1.73;;
46745;SDS011;32493;50.514;9.678;2024-02-04T00:04:26;1.70;;;1.60;;
46745;SDS011;32493;50.514;9.678;2024-02-04T00:06:54;2.45;;;1.60;;
46745;SDS011;32493;50.514;9.678;2024-02-04T00:09:21;2.17;;;1.60;;
46745;SDS011;32493;50.514;9.678;2024-02-04T00:11:49;2.58;;;1.77;;
46745;SDS011;32493;50.514;9.678;2024-02-04T00:14:18;1.05;;;0.80;;
46745;SDS011;32493;50.514;9.678;2024-02-04T00:16:45;2.00;;;1.38;;
46745;SDS011;32493;50.514;9.678;2024-02-04T00:19:13;2.00;;;1.40;;
46745;SDS011;32493;50.514;9.678;2024-02-04T00:21:40;2.45;;;1.55;;
46745;SDS011;32493;50.514;9.678;2024-02-04T00:24:07;3.55;;;2.00;;
46745;SDS011;32493;50.514;9.678;2024-02-04T00:26:36;2.83;;;1.83;;
46745;SDS011;32493;50.514;9.678;2024-02-04T00:29:03;1.33;;;1.17;;
46745;SDS011;32493;50.514;9.678;2024-02-04T00:31:30;3.00;;;1.70;;
46745;SDS011;32493;50.514;9.678;2024-02-04T00:33:58;2.45;;;2.20;;
46745;SDS011;32493;50.514;9.678;2024-02-04T00:36:28;1.65;;;1.20;;
46745;SDS011;32493;50.514;9.678;2024-02-04T00:41:22;2.60;;;2.03;;
46745;SDS011;32493;50.514;9.678;2024-02-04T00:43:49;2.95;;;1.98;;
46745;SDS011;32493;50.514;9.678;2024-02-04T00:46:16;2.70;;;2.20;;
46745;SDS011;32493;50.514;9.678;2024-02-04T00:48:43;2.08;;;1.88;;
46745;SDS011;32493;50.514;9.678;2024-02-04T00:51:10;3.55;;;2.72;;
46745;SDS011;32493;50.514;9.678;2024-02-04T00:53:40;2.47;;;2.10;;
46745;SDS011;32493;50.514;9.678;2024-02-04T00:56:09;2.80;;;2.30;;
46745;SDS011;32493;50.514;9.678;2024-02-04T00:58:37;1.85;;;1.35;;
46745;SDS011;32493;50.514;9.678;2024-02-04T01:01:07;2.92;;;1.98;;
46745;SDS011;32493;50.514;9.678;2024-02-04T01:03:35;2.30;;;1.90;;
46745;SDS011;32493;50.514;9.678;2024-02-04T01:06:05;2.53;;;1.30;;
46745;SDS011;32493;50.514;9.678;2024-02-04T01:08:32;1.58;;;1.17;;
46745;SDS011;32493;50.514;9.678;2024-02-04T01:11:01;1.55;;;1.33;;
46745;SDS011;32493;50.514;9.678;2024-02-04T01:13:31;1.70;;;1.50;;
46745;SDS011;32493;50.514;9.678;2024-02-04T01:16:01;2.00;;;1.80;;
46745;SDS011;32493;50.514;9.678;2024-02-04T01:18:29;2.83;;;1.50;;
46745;SDS011;32493;50.514;9.678;2024-02-04T01:21:00;1.88;;;1.27;;
46745;SDS011;32493;50.514;9.678;2024-02-04T01:23:30;0.88;;;0.80;;
46745;SDS011;32493;50.514;9.678;2024-02-04T01:25:57;3.90;;;1.05;;
46745;SDS011;32493;50.514;9.678;2024-02-04T01:28:27;2.08;;;0.98;;
46745;SDS011;32493;50.514;9.678;2024-02-04T01:30:53;1.40;;;1.30;;
46745;SDS011;32493;50.514;9.678;2024-02-04T01:33:20;1.33;;;1.00;;
46745;SDS011;32493;50.514;9.678;2024-02-04T01:35:49;1.92;;;1.20;;
46745;SDS011;32493;50.514;9.678;2024-02-04T01:38:16;1.35;;;1.17;;
46745;SDS011;32493;50.514;9.678;2024-02-04T01:40:43;1.67;;;1.27;;
46745;SDS011;32493;50.514;9.678;2024-02-04T01:43:13;2.13;;;0.95;;
46745;SDS011;32493;50.514;9.678;2024-02-04T01:45:42;1.00;;;0.73;;
46745;SDS011;32493;50.514;9.678;2024-02-04T01:48:10;1.50;;;1.20;;
46745;SDS011;32493;50.514;9.678;2024-02-04T01:50:37;1.92;;;1.00;;
46745;SDS011;32493;50.514;9.678;2024-02-04T01:55:32;1.65;;;1.20;;
46745;SDS011;32493;50.514;9.678;2024-02-04T01:58:03;1.98;;;1.27;;
46745;SDS011;32493;50.514;9.678;2024-02-04T02:00:30;2.22;;;1.30;;
46745;SDS011;32493;50.514;9.678;2024-02-04T02:03:00;1.30;;;0.98;;
46745;SDS011;32493;50.514;9.678;2024-02-04T02:05:29;2.15;;;1.35;;
46745;SDS011;32493;50.514;9.678;2024-02-04T02:07:57;1.85;;;1.48;;
46745;SDS011;32493;50.514;9.678;2024-02-04T02:10:24;1.77;;;1.02;;
46745;SDS011;32493;50.514;9.678;2024-02-04T02:12:59;1.58;;;1.20;;
46745;SDS011;32493;50.514;9.678;2024-02-04T02:15:34;1.35;;;1.25;;
46745;SDS011;32493;50.514;9.678;2024-02-04T02:24:04;1.17;;;1.05;;
46745;SDS011;32493;50.514;9.678;2024-02-04T02:26:41;1.33;;;1.15;;
46745;SDS011;32493;50.514;9.678;2024-02-04T02:29:09;1.77;;;0.80;;
46745;SDS011;32493;50.514;9.678;2024-02-04T02:31:37;1.60;;;1.30;;
46745;SDS011;32493;50.514;9.678;2024-02-04T02:34:14;2.53;;;1.08;;
46745;SDS011;32493;50.514;9.678;2024-02-04T02:44:48;1.58;;;1.17;;
46745;SDS011;32493;50.514;9.678;2024-02-04T02:47:15;1.38;;;1.17;;
46745;SDS011;32493;50.514;9.678;2024-02-04T02:49:43;1.73;;;1.63;;
46745;SDS011;32493;50.514;9.678;2024-02-04T02:52:12;1.58;;;1.13;;
46745;SDS011;32493;50.514;9.678;2024-02-04T02:54:40;1.00;;;0.93;;
46745;SDS011;32493;50.514;9.678;2024-02-04T02:57:09;2.55;;;1.20;;
46745;SDS011;32493;50.514;9.678;2024-02-04T02:59:36;2.00;;;1.80;;
46745;SDS011;32493;50.514;9.678;2024-02-04T03:02:03;1.88;;;1.42;;
46745;SDS011;32493;50.514;9.678;2024-02-04T03:04:30;2.05;;;1.70;;
46745;SDS011;32493;50.514;9.678;2024-02-04T03:06:59;2.17;;;1.98;;
46745;SDS011;32493;50.514;9.678;2024-02-04T03:09:26;1.33;;;1.20;;
46745;SDS011;32493;50.514;9.678;2024-02-04T03:11:54;2.58;;;1.70;;
46745;SDS011;32493;50.514;9.678;2024-02-04T03:14:24;1.60;;;1.23;;
46745;SDS011;32493;50.514;9.678;2024-02-04T03:16:51;2.90;;;2.40;;
46745;SDS011;32493;50.514;9.678;2024-02-04T03:19:20;4.07;;;2.95;;
46745;SDS011;32493;50.514;9.678;2024-02-04T03:21:47;2.63;;;1.98;;
46745;SDS011;32493;50.514;9.678;2024-02-04T03:24:15;3.28;;;1.70;;
46745;SDS011;32493;50.514;9.678;2024-02-04T03:26:45;3.38;;;1.73;;
46745;SDS011;32493;50.514;9.678;2024-02-04T03:29:14;1.65;;;1.08;;
46745;SDS011;32493;50.514;9.678;2024-02-04T03:31:42;2.63;;;1.67;;
46745;SDS011;32493;50.514;9.678;2024-02-04T03:34:09;1.40;;;1.30;;
46745;SDS011;32493;50.514;9.678;2024-02-04T03:36:38;2.30;;;1.13;;
46745;SDS011;32493;50.514;9.678;2024-02-04T03:39:07;0.80;;;0.63;;
46745;SDS011;32493;50.514;9.678;2024-02-04T03:41:35;1.73;;;1.40;;
46745;SDS011;32493;50.514;9.678;2024-02-04T03:44:02;3.17;;;1.58;;
46745;SDS011;32493;50.514;9.678;2024-02-04T03:46:32;0.60;;;0.55;;
46745;SDS011;32493;50.514;9.678;2024-02-04T03:49:00;1.25;;;1.02;;
46745;SDS011;32493;50.514;9.678;2024-02-04T03:51:27;2.00;;;1.23;;
46745;SDS011;32493;50.514;9.678;2024-02-04T03:53:54;3.00;;;1.35;;
46745;SDS011;32493;50.514;9.678;2024-02-04T03:56:24;2.80;;;1.20;;
46745;SDS011;32493;50.514;9.678;2024-02-04T03:58:54;2.17;;;1.95;;
46745;SDS011;32493;50.514;9.678;2024-02-04T04:01:25;3.58;;;2.40;;
46745;SDS011;32493;50.514;9.678;2024-02-04T04:03:54;5.32;;;2.22;;
46745;SDS011;32493;50.514;9.678;2024-02-04T04:06:24;2.65;;;2.15;;
46745;SDS011;32493;50.514;9.678;2024-02-04T04:08:53;3.55;;;1.75;;
46745;SDS011;32493;50.514;9.678;2024-02-04T04:11:20;1.95;;;1.42;;
46745;SDS011;32493;50.514;9.678;2024-02-04T04:13:49;1.70;;;1.40;;
46745;SDS011;32493;50.514;9.678;2024-02-04T04:16:22;1.50;;;1.20;;
46745;SDS011;32493;50.514;9.678;2024-02-04T04:18:49;1.50;;;1.25;;
46745;SDS011;32493;50.514;9.678;2024-02-04T04:21:17;1.00;;;0.90;;
46745;SDS011;32493;50.514;9.678;2024-02-04T04:23:44;1.42;;;1.20;;
46745;SDS011;32493;50.514;9.678;2024-02-04T04:26:12;1.10;;;0.88;;
46745;SDS011;32493;50.514;9.678;2024-02-04T04:28:43;1.13;;;1.02;;
46745;SDS011;32493;50.514;9.678;2024-02-04T04:31:13;1.27;;;0.90;;
46745;SDS011;32493;50.514;9.678;2024-02-04T04:33:41;1.20;;;0.73;;
46745;SDS011;32493;50.514;9.678;2024-02-04T04:36:10;2.92;;;0.82;;
46745;SDS011;32493;50.514;9.678;2024-02-04T04:38:40;1.23;;;1.00;;
46745;SDS011;32493;50.514;9.678;2024-02-04T04:41:08;0.68;;;0.68;;
46745;SDS011;32493;50.514;9.678;2024-02-04T04:43:40;1.55;;;0.90;;
46745;SDS011;32493;50.514;9.678;2024-02-04T04:46:08;1.73;;;0.60;;
46745;SDS011;32493;50.514;9.678;2024-02-04T04:48:40;4.07;;;0.93;;
46745;SDS011;32493;50.514;9.678;2024-02-04T04:51:08;1.67;;;1.17;;
46745;SDS011;32493;50.514;9.678;2024-02-04T04:53:36;1.65;;;0.75;;
46745;SDS011;32493;50.514;9.678;2024-02-04T04:58:30;0.77;;;0.60;;
46745;SDS011;32493;50.514;9.678;2024-02-04T05:00:57;0.80;;;0.73;;
46745;SDS011;32493;50.514;9.678;2024-02-04T05:03:24;0.95;;;0.77;;
46745;SDS011;32493;50.514;9.678;2024-02-04T05:08:18;0.82;;;0.73;;
46745;SDS011;32493;50.514;9.678;2024-02-04T05:10:46;0.70;;;0.70;;
46745;SDS011;32493;50.514;9.678;2024-02-04T05:13:15;0.52;;;0.40;;
46745;SDS011;32493;50.514;9.678;2024-02-04T05:15:42;0.90;;;0.82;;
46745;SDS011;32493;50.514;9.678;2024-02-04T05:18:11;0.90;;;0.63;;
46745;SDS011;32493;50.514;9.678;2024-02-04T05:23:05;1.60;;;0.90;;
46745;SDS011;32493;50.514;9.678;2024-02-04T05:25:34;0.93;;;0.80;;
46745;SDS011;32493;50.514;9.678;2024-02-04T05:28:02;0.60;;;0.50;;
46745;SDS011;32493;50.514;9.678;2024-02-04T05:32:58;1.50;;;0.80;;
46745;SDS011;32493;50.514;9.678;2024-02-04T05:35:26;1.63;;;0.65;;
46745;SDS011;32493;50.514;9.678;2024-02-04T05:37:55;1.13;;;0.60;;
46745;SDS011;32493;50.514;9.678;2024-02-04T05:40:23;1.02;;;0.52;;
46745;SDS011;32493;50.514;9.678;2024-02-04T05:45:18;1.50;;;0.50;;
46745;SDS011;32493;50.514;9.678;2024-02-04T05:47:45;0.80;;;0.50;;
46745;SDS011;32493;50.514;9.678;2024-02-04T05:50:14;1.48;;;0.70;;
46745;SDS011;32493;50.514;9.678;2024-02-04T05:52:41;2.40;;;0.40;;
46745;SDS011;32493;50.514;9.678;2024-02-04T05:55:09;0.20;;;0.20;;
46745;SDS011;32493;50.514;9.678;2024-02-04T05:57:38;0.50;;;0.30;;
46745;SDS011;32493;50.514;9.678;2024-02-04T06:00:08;0.20;;;0.20;;
46745;SDS011;32493;50.514;9.678;2024-02-04T06:02:36;1.85;;;0.68;;
46745;SDS011;32493;50.514;9.678;2024-02-04T06:05:03;0.75;;;0.30;;
46745;SDS011;32493;50.514;9.678;2024-02-04T06:07:33;1.38;;;0.28;;
46745;SDS011;32493;50.514;9.678;2024-02-04T06:10:00;0.75;;;0.50;;
46745;SDS011;32493;50.514;9.678;2024-02-04T06:12:30;0.82;;;0.50;;
46745;SDS011;32493;50.514;9.678;2024-02-04T06:14:58;0.50;;;0.50;;
46745;SDS011;32493;50.514;9.678;2024-02-04T06:17:25;1.20;;;0.60;;
46745;SDS011;32493;50.514;9.678;2024-02-04T06:19:53;0.65;;;0.40;;
46745;SDS011;32493;50.514;9.678;2024-02-04T06:22:20;0.40;;;0.38;;
46745;SDS011;32493;50.514;9.678;2024-02-04T06:24:48;0.30;;;0.30;;
46745;SDS011;32493;50.514;9.678;2024-02-04T06:27:16;0.73;;;0.40;;
46745;SDS011;32493;50.514;9.678;2024-02-04T06:29:45;0.20;;;0.20;;
46745;SDS011;32493;50.514;9.678;2024-02-04T06:32:14;0.57;;;0.35;;
46745;SDS011;32493;50.514;9.678;2024-02-04T06:34:43;0.30;;;0.30;;
46745;SDS011;32493;50.514;9.678;2024-02-04T06:37:12;0.77;;;0.50;;
46745;SDS011;32493;50.514;9.678;2024-02-04T06:39:40;1.73;;;0.50;;
46745;SDS011;32493;50.514;9.678;2024-02-04T06:42:10;0.47;;;0.40;;
46745;SDS011;32493;50.514;9.678;2024-02-04T06:44:37;0.98;;;0.25;;
46745;SDS011;32493;50.514;9.678;2024-02-04T06:47:04;1.00;;;0.30;;
46745;SDS011;32493;50.514;9.678;2024-02-04T06:49:31;1.48;;;0.35;;
46745;SDS011;32493;50.514;9.678;2024-02-04T06:51:58;0.40;;;0.30;;
46745;SDS011;32493;50.514;9.678;2024-02-04T06:54:26;0.10;;;0.10;;
46745;SDS011;32493;50.514;9.678;2024-02-04T06:56:54;0.20;;;0.20;;
46745;SDS011;32493;50.514;9.678;2024-02-04T06:59:23;0.20;;;0.20;;
46745;SDS011;32493;50.514;9.678;2024-02-04T07:01:53;0.40;;;0.10;;
46745;SDS011;32493;50.514;9.678;2024-02-04T07:04:20;0.10;;;0.10;;
46745;SDS011;32493;50.514;9.678;2024-02-04T07:06:58;0.13;;;0.10;;
46745;SDS011;32493;50.514;9.678;2024-02-04T07:11:53;1.27;;;0.60;;
46745;SDS011;32493;50.514;9.678;2024-02-04T07:16:49;0.70;;;0.40;;
46745;SDS011;32493;50.514;9.678;2024-02-04T07:19:18;0.47;;;0.40;;
46745;SDS011;32493;50.514;9.678;2024-02-04T07:21:47;0.90;;;0.52;;
46745;SDS011;32493;50.514;9.678;2024-02-04T07:24:16;0.45;;;0.45;;
46745;SDS011;32493;50.514;9.678;2024-02-04T07:26:47;0.60;;;0.30;;
46745;SDS011;32493;50.514;9.678;2024-02-04T07:31:42;1.65;;;0.30;;
46745;SDS011;32493;50.514;9.678;2024-02-04T07:34:09;0.70;;;0.50;;
46745;SDS011;32493;50.514;9.678;2024-02-04T07:36:36;0.80;;;0.63;;
46745;SDS011;32493;50.514;9.678;2024-02-04T07:43:58;0.93;;;0.60;;
46745;SDS011;32493;50.514;9.678;2024-02-04T07:46:25;0.70;;;0.50;;
46745;SDS011;32493;50.514;9.678;2024-02-04T07:51:19;0.82;;;0.40;;
46745;SDS011;32493;50.514;9.678;2024-02-04T07:53:47;0.30;;;0.20;;
46745;SDS011;32493;50.514;9.678;2024-02-04T07:56:14;0.50;;;0.30;;
46745;SDS011;32493;50.514;9.678;2024-02-04T07:58:41;0.30;;;0.30;;
46745;SDS011;32493;50.514;9.678;2024-02-04T08:03:35;0.20;;;0.20;;
46745;SDS011;32493;50.514;9.678;2024-02-04T08:06:04;1.55;;;0.40;;
46745;SDS011;32493;50.514;9.678;2024-02-04T08:08:31;0.38;;;0.30;;
46745;SDS011;32493;50.514;9.678;2024-02-04T08:13:27;0.55;;;0.30;;
46745;SDS011;32493;50.514;9.678;2024-02-04T08:15:54;0.30;;;0.25;;
46745;SDS011;32493;50.514;9.678;2024-02-04T08:18:21;0.55;;;0.30;;
46745;SDS011;32493;50.514;9.678;2024-02-04T08:20:48;0.40;;;0.20;;
46745;SDS011;32493;50.514;9.678;2024-02-04T08:23:15;0.50;;;0.30;;
46745;SDS011;32493;50.514;9.678;2024-02-04T08:25:42;0.25;;;0.25;;
46745;SDS011;32493;50.514;9.678;2024-02-04T08:28:09;0.20;;;0.20;;
46745;SDS011;32493;50.514;9.678;2024-02-04T08:35:31;0.50;;;0.40;;
46745;SDS011;32493;50.514;9.678;2024-02-04T08:37:58;0.35;;;0.35;;
46745;SDS011;32493;50.514;9.678;2024-02-04T08:40:26;0.82;;;0.40;;
46745;SDS011;32493;50.514;9.678;2024-02-04T08:42:53;0.85;;;0.30;;
46745;SDS011;32493;50.514;9.678;2024-02-04T08:45:20;0.60;;;0.40;;
46745;SDS011;32493;50.514;9.678;2024-02-04T08:47:47;0.73;;;0.57;;
46745;SDS011;32493;50.514;9.678;2024-02-04T08:50:15;0.55;;;0.38;;
46745;SDS011;32493;50.514;9.678;2024-02-04T08:52:42;0.32;;;0.30;;
46745;SDS011;32493;50.514;9.678;2024-02-04T08:55:09;0.90;;;0.50;;
46745;SDS011;32493;50.514;9.678;2024-02-04T08:57:36;1.30;;;0.40;;
46745;SDS011;32493;50.514;9.678;2024-02-04T09:00:04;0.40;;;0.38;;
46745;SDS011;32493;50.514;9.678;2024-02-04T09:04:58;1.85;;;0.93;;
46745;SDS011;32493;50.514;9.678;2024-02-04T09:07:25;0.50;;;0.50;;
46745;SDS011;32493;50.514;9.678;2024-02-04T09:09:55;0.43;;;0.38;;
46745;SDS011;32493;50.514;9.678;2024-02-04T09:12:22;0.60;;;0.60;;
46745;SDS011;32493;50.514;9.678;2024-02-04T09:14:49;1.00;;;0.90;;
46745;SDS011;32493;50.514;9.678;2024-02-04T09:17:16;1.75;;;0.60;;
46745;SDS011;32493;50.514;9.678;2024-02-04T09:19:44;2.05;;;0.40;;
46745;SDS011;32493;50.514;9.678;2024-02-04T09:22:11;0.20;;;0.20;;
46745;SDS011;32493;50.514;9.678;2024-02-04T09:24:39;0.70;;;0.40;;
46745;SDS011;32493;50.514;9.678;2024-02-04T09:27:06;0.40;;;0.28;;
46745;SDS011;32493;50.514;9.678;2024-02-04T09:29:33;0.40;;;0.40;;
46745;SDS011;32493;50.514;9.678;2024-02-04T09:32:00;1.23;;;0.63;;
46745;SDS011;32493;50.514;9.678;2024-02-04T09:34:27;0.22;;;0.20;;
46745;SDS011;32493;50.514;9.678;2024-02-04T09:36:55;0.20;;;0.20;;
46745;SDS011;32493;50.514;9.678;2024-02-04T09:39:22;0.25;;;0.25;;
46745;SDS011;32493;50.514;9.678;2024-02-04T09:41:49;0.28;;;0.20;;
46745;SDS011;32493;50.514;9.678;2024-02-04T09:44:16;0.20;;;0.20;;
46745;SDS011;32493;50.514;9.678;2024-02-04T09:46:44;0.50;;;0.50;;
46745;SDS011;32493;50.514;9.678;2024-02-04T09:49:12;0.25;;;0.20;;
46745;SDS011;32493;50.514;9.678;2024-02-04T09:51:40;0.57;;;0.22;;
46745;SDS011;32493;50.514;9.678;2024-02-04T09:54:09;0.22;;;0.22;;
46745;SDS011;32493;50.514;9.678;2024-02-04T09:56:38;0.10;;;0.10;;
46745;SDS011;32493;50.514;9.678;2024-02-04T09:59:05;0.10;;;0.10;;
46745;SDS011;32493;50.514;9.678;2024-02-04T10:01:32;0.20;;;0.20;;
46745;SDS011;32493;50.514;9.678;2024-02-04T10:04:00;0.10;;;0.10;;
46745;SDS011;32493;50.514;9.678;2024-02-04T10:06:28;0.22;;;0.10;;
46745;SDS011;32493;50.514;9.678;2024-02-04T10:11:23;0.10;;;0.10;;
46745;SDS011;32493;50.514;9.678;2024-02-04T10:16:17;0.10;;;0.10;;
46745;SDS011;32493;50.514;9.678;2024-02-04T10:18:45;0.20;;;0.20;;
46745;SDS011;32493;50.514;9.678;2024-02-04T10:21:20;0.13;;;0.13;;
46745;SDS011;32493;50.514;9.678;2024-02-04T10:23:50;0.15;;;0.10;;
46745;SDS011;32493;50.514;9.678;2024-02-04T10:26:17;0.10;;;0.10;;
46745;SDS011;32493;50.514;9.678;2024-02-04T10:28:47;0.30;;;0.30;;
46745;SDS011;32493;50.514;9.678;2024-02-04T10:31:14;0.10;;;0.10;;
46745;SDS011;32493;50.514;9.678;2024-02-04T10:33:43;0.20;;;0.20;;
46745;SDS011;32493;50.514;9.678;2024-02-04T10:36:11;0.22;;;0.13;;
46745;SDS011;32493;50.514;9.678;2024-02-04T10:38:38;0.25;;;0.10;;
46745;SDS011;32493;50.514;9.678;2024-02-04T10:41:05;0.10;;;0.10;;
46745;SDS011;32493;50.514;9.678;2024-02-04T10:43:33;0.20;;;0.17;;
46745;SDS011;32493;50.514;9.678;2024-02-04T10:46:01;0.22;;;0.10;;
46745;SDS011;32493;50.514;9.678;2024-02-04T10:48:37;0.22;;;0.20;;
46745;SDS011;32493;50.514;9.678;2024-02-04T10:51:12;0.45;;;0.20;;
46745;SDS011;32493;50.514;9.678;2024-02-04T10:53:44;0.82;;;0.28;;
46745;SDS011;32493;50.514;9.678;2024-02-04T10:56:18;0.10;;;0.10;;
46745;SDS011;32493;50.514;9.678;2024-02-04T10:58:48;0.10;;;0.10;;
46745;SDS011;32493;50.514;9.678;2024-02-04T11:01:15;0.20;;;0.20;;
46745;SDS011;32493;50.514;9.678;2024-02-04T11:06:10;0.30;;;0.15;;
46745;SDS011;32493;50.514;9.678;2024-02-04T11:08:41;2.00;;;0.40;;
46745;SDS011;32493;50.514;9.678;2024-02-04T11:11:09;0.13;;;0.13;;
46745;SDS011;32493;50.514;9.678;2024-02-04T11:13:36;1.30;;;0.17;;
46745;SDS011;32493;50.514;9.678;2024-02-04T11:16:05;0.55;;;0.10;;
46745;SDS011;32493;50.514;9.678;2024-02-04T11:21:22;0.20;;;0.10;;
46745;SDS011;32493;50.514;9.678;2024-02-04T11:27:21;0.30;;;0.10;;
46745;SDS011;32493;50.514;9.678;2024-02-04T11:29:49;0.15;;;0.15;;
46745;SDS011;32493;50.514;9.678;2024-02-04T11:32:16;0.35;;;0.30;;
46745;SDS011;32493;50.514;9.678;2024-02-04T11:34:44;0.60;;;0.30;;
46745;SDS011;32493;50.514;9.678;2024-02-04T11:37:18;0.10;;;0.10;;
46745;SDS011;32493;50.514;9.678;2024-02-04T11:39:50;0.10;;;0.10;;
46745;SDS011;32493;50.514;9.678;2024-02-04T11:42:18;0.13;;;0.10;;
46745;SDS011;32493;50.514;9.678;2024-02-04T11:44:46;0.10;;;0.10;;
46745;SDS011;32493;50.514;9.678;2024-02-04T11:47:23;0.13;;;0.10;;
46745;SDS011;32493;50.514;9.678;2024-02-04T11:52:27;0.10;;;0.10;;
46745;SDS011;32493;50.514;9.678;2024-02-04T11:54:55;0.03;;;0.03;;
46745;SDS011;32493;50.514;9.678;2024-02-04T11:57:22;0.10;;;0.00;;
46745;SDS011;32493;50.514;9.678;2024-02-04T11:59:50;0.17;;;0.10;;
46745;SDS011;32493;50.514;9.678;2024-02-04T12:02:17;0.30;;;0.10;;
46745;SDS011;32493;50.514;9.678;2024-02-04T12:04:45;0.08;;;0.05;;
46745;SDS011;32493;50.514;9.678;2024-02-04T12:07:13;0.50;;;0.30;;
46745;SDS011;32493;50.514;9.678;2024-02-04T12:09:41;0.00;;;0.00;;
46745;SDS011;32493;50.514;9.678;2024-02-04T12:12:09;0.10;;;0.10;;
46745;SDS011;32493;50.514;9.678;2024-02-04T12:14:36;0.05;;;0.05;;
46745;SDS011;32493;50.514;9.678;2024-02-04T12:17:11;0.05;;;0.05;;
46745;SDS011;32493;50.514;9.678;2024-02-04T12:19:39;0.52;;;0.10;;
46745;SDS011;32493;50.514;9.678;2024-02-04T12:22:10;0.75;;;0.15;;
46745;SDS011;32493;50.514;9.678;2024-02-04T12:24:38;0.10;;;0.10;;
46745;SDS011;32493;50.514;9.678;2024-02-04T12:27:05;0.00;;;0.00;;
46745;SDS011;32493;50.514;9.678;2024-02-04T12:29:33;0.10;;;0.10;;
46745;SDS011;32493;50.514;9.678;2024-02-04T12:34:31;0.13;;;0.10;;
46745;SDS011;32493;50.514;9.678;2024-02-04T12:37:01;0.32;;;0.22;;
46745;SDS011;32493;50.514;9.678;2024-02-04T12:39:29;0.20;;;0.10;;
46745;SDS011;32493;50.514;9.678;2024-02-04T12:41:59;0.00;;;0.00;;
46745;SDS011;32493;50.514;9.678;2024-02-04T12:44:26;0.10;;;0.10;;
46745;SDS011;32493;50.514;9.678;2024-02-04T12:46:53;0.10;;;0.08;;
46745;SDS011;32493;50.514;9.678;2024-02-04T12:49:21;0.10;;;0.10;;
46745;SDS011;32493;50.514;9.678;2024-02-04T12:51:49;0.20;;;0.20;;
46745;SDS011;32493;50.514;9.678;2024-02-04T12:54:19;0.17;;;0.10;;
46745;SDS011;32493;50.514;9.678;2024-02-04T12:56:50;0.10;;;0.10;;
46745;SDS011;32493;50.514;9.678;2024-02-04T13:01:56;1.42;;;0.90;;
46745;SDS011;32493;50.514;9.678;2024-02-04T13:04:24;0.20;;;0.20;;
46745;SDS011;32493;50.514;9.678;2024-02-04T13:09:19;0.30;;;0.20;;
46745;SDS011;32493;50.514;9.678;2024-02-04T13:14:13;0.20;;;0.20;;
46745;SDS011;32493;50.514;9.678;2024-02-04T13:16:40;0.30;;;0.30;;
46745;SDS011;32493;50.514;9.678;2024-02-04T13:19:07;0.25;;;0.10;;
46745;SDS011;32493;50.514;9.678;2024-02-04T13:21:34;0.70;;;0.10;;
46745;SDS011;32493;50.514;9.678;2024-02-04T13:24:02;2.13;;;0.30;;
46745;SDS011;32493;50.514;9.678;2024-02-04T13:26:29;1.20;;;0.28;;
46745;SDS011;32493;50.514;9.678;2024-02-04T13:28:56;0.10;;;0.10;;
46745;SDS011;32493;50.514;9.678;2024-02-04T13:31:32;0.20;;;0.20;;
46745;SDS011;32493;50.514;9.678;2024-02-04T13:34:04;0.22;;;0.20;;
46745;SDS011;32493;50.514;9.678;2024-02-04T13:38:59;0.03;;;0.00;;
46745;SDS011;32493;50.514;9.678;2024-02-04T13:41:26;0.40;;;0.20;;
46745;SDS011;32493;50.514;9.678;2024-02-04T13:43:53;1.08;;;0.10;;
46745;SDS011;32493;50.514;9.678;2024-02-04T13:46:20;0.25;;;0.10;;
46745;SDS011;32493;50.514;9.678;2024-02-04T13:48:47;0.20;;;0.10;;
46745;SDS011;32493;50.514;9.678;2024-02-04T13:51:14;0.17;;;0.10;;
46745;SDS011;32493;50.514;9.678;2024-02-04T13:53:57;0.73;;;0.10;;
46745;SDS011;32493;50.514;9.678;2024-02-04T13:56:24;0.28;;;0.20;;
46745;SDS011;32493;50.514;9.678;2024-02-04T13:58:51;0.25;;;0.25;;
46745;SDS011;32493;50.514;9.678;2024-02-04T14:01:21;0.20;;;0.15;;
46745;SDS011;32493;50.514;9.678;2024-02-04T14:03:49;0.10;;;0.10;;
46745;SDS011;32493;50.514;9.678;2024-02-04T14:06:17;0.10;;;0.10;;
46745;SDS011;32493;50.514;9.678;2024-02-04T14:08:44;0.45;;;0.20;;
46745;SDS011;32493;50.514;9.678;2024-02-04T14:11:12;0.20;;;0.20;;
46745;SDS011;32493;50.514;9.678;2024-02-04T14:13:39;0.20;;;0.20;;
46745;SDS011;32493;50.514;9.678;2024-02-04T14:16:06;0.10;;;0.10;;
46745;SDS011;32493;50.514;9.678;2024-02-04T14:18:35;0.38;;;0.15;;
46745;SDS011;32493;50.514;9.678;2024-02-04T14:21:03;0.28;;;0.10;;
46745;SDS011;32493;50.514;9.678;2024-02-04T14:23:32;0.10;;;0.10;;
46745;SDS011;32493;50.514;9.678;2024-02-04T14:25:59;0.10;;;0.10;;
46745;SDS011;32493;50.514;9.678;2024-02-04T14:28:26;0.22;;;0.13;;
46745;SDS011;32493;50.514;9.678;2024-02-04T14:30:53;0.28;;;0.20;;
46745;SDS011;32493;50.514;9.678;2024-02-04T14:33:23;0.30;;;0.20;;
46745;SDS011;32493;50.514;9.678;2024-02-04T14:35:50;3.10;;;0.28;;
46745;SDS011;32493;50.514;9.678;2024-02-04T14:38:17;0.10;;;0.10;;
46745;SDS011;32493;50.514;9.678;2024-02-04T14:40:45;0.22;;;0.10;;
46745;SDS011;32493;50.514;9.678;2024-02-04T14:43:12;0.00;;;0.00;;
46745;SDS011;32493;50.514;9.678;2024-02-04T14:45:40;0.10;;;0.10;;
46745;SDS011;32493;50.514;9.678;2024-02-04T14:48:07;0.10;;;0.10;;
46745;SDS011;32493;50.514;9.678;2024-02-04T14:50:34;0.30;;;0.20;;
46745;SDS011;32493;50.514;9.678;2024-02-04T14:53:02;0.30;;;0.20;;
46745;SDS011;32493;50.514;9.678;2024-02-04T14:55:29;0.95;;;0.30;;
46745;SDS011;32493;50.514;9.678;2024-02-04T14:57:56;1.38;;;0.30;;
46745;SDS011;32493;50.514;9.678;2024-02-04T15:00:23;0.70;;;0.28;;
46745;SDS011;32493;50.514;9.678;2024-02-04T15:02:53;0.65;;;0.17;;
46745;SDS011;32493;50.514;9.678;2024-02-04T15:05:20;0.17;;;0.10;;
46745;SDS011;32493;50.514;9.678;2024-02-04T15:07:49;0.30;;;0.20;;
46745;SDS011;32493;50.514;9.678;2024-02-04T15:10:18;0.20;;;0.20;;
46745;SDS011;32493;50.514;9.678;2024-02-04T15:12:45;0.30;;;0.20;;
46745;SDS011;32493;50.514;9.678;2024-02-04T15:15:12;0.93;;;0.28;;
46745;SDS011;32493;50.514;9.678;2024-02-04T15:17:40;0.10;;;0.10;;
46745;SDS011;32493;50.514;9.678;2024-02-04T15:20:07;0.63;;;0.40;;
46745;SDS011;32493;50.514;9.678;2024-02-04T15:22:42;0.50;;;0.20;;
46745;SDS011;32493;50.514;9.678;2024-02-04T15:25:09;1.17;;;0.20;;
46745;SDS011;32493;50.514;9.678;2024-02-04T15:27:42;0.20;;;0.20;;
46745;SDS011;32493;50.514;9.678;2024-02-04T15:30:11;0.10;;;0.10;;
46745;SDS011;32493;50.514;9.678;2024-02-04T15:32:39;0.10;;;0.10;;
46745;SDS011;32493;50.514;9.678;2024-02-04T15:35:07;0.20;;;0.20;;
46745;SDS011;32493;50.514;9.678;2024-02-04T15:37:35;0.15;;;0.13;;
46745;SDS011;32493;50.514;9.678;2024-02-04T15:40:03;2.53;;;0.20;;
46745;SDS011;32493;50.514;9.678;2024-02-04T15:42:30;0.75;;;0.10;;
46745;SDS011;32493;50.514;9.678;2024-02-04T15:44:57;0.20;;;0.20;;
46745;SDS011;32493;50.514;9.678;2024-02-04T15:47:25;0.20;;;0.10;;
46745;SDS011;32493;50.514;9.678;2024-02-04T15:49:54;1.60;;;0.20;;
46745;SDS011;32493;50.514;9.678;2024-02-04T15:52:21;0.30;;;0.20;;
46745;SDS011;32493;50.514;9.678;2024-02-04T15:54:48;0.73;;;0.20;;
46745;SDS011;32493;50.514;9.678;2024-02-04T15:57:19;0.00;;;0.00;;
46745;SDS011;32493;50.514;9.678;2024-02-04T16:02:18;0.98;;;0.52;;
46745;SDS011;32493;50.514;9.678;2024-02-04T16:04:45;0.65;;;0.30;;
46745;SDS011;32493;50.514;9.678;2024-02-04T16:07:13;0.63;;;0.20;;
46745;SDS011;32493;50.514;9.678;2024-02-04T16:09:42;1.55;;;0.30;;
46745;SDS011;32493;50.514;9.678;2024-02-04T16:12:18;0.35;;;0.20;;
46745;SDS011;32493;50.514;9.678;2024-02-04T16:14:48;0.65;;;0.30;;
46745;SDS011;32493;50.514;9.678;2024-02-04T16:17:16;0.10;;;0.10;;
46745;SDS011;32493;50.514;9.678;2024-02-04T16:19:48;0.50;;;0.30;;
46745;SDS011;32493;50.514;9.678;2024-02-04T16:22:16;0.50;;;0.38;;
46745;SDS011;32493;50.514;9.678;2024-02-04T16:24:45;0.57;;;0.30;;